Darstellungsparameter: Aktuell verwendete Einstellungen:
Skalierung der Graphiken ... ?
xyx+y,   Skalierungsfaktor:      Skalierung: Modus: x, Faktor: 1
Darstellungszeitraum ... ?
Vom - - bis: - -   Zeitraum: 31.03.2020 - 01.04.2020
Min/Max/Avg-Anzeige ... ?
Zeige MMA aktuell
Zeige MMA Monat
Zeige MMA alles
Zeige --A aktuell
Zeige --A Monat
Zeige --A alles
Keine MMA-Anzeige
MMA:
Average (ber die Originaldaten)
MMA-Basis: 31.03.2020 - 01.04.2020
Quicknavigation für Darstellung... ?
Tage:      1T, 2T, 3T, 5T -1T -2T -3T -5T +1T +2T +3T +5T
Wochen: 1W, 2W, 3W -1W -2W -3W +1W +2W +3W
Monate: 1M, 3M, 6M -1M -3M -6M +1M +3M +6M
Jahre:    1J, 3J, 5J, 10J -1J -3J -5J -10J +1J +3J +5J +10J
Nutze für die Darstellung ... ?
Originaldaten oder Mittelwerte auf ...
Stundenbasis Tagesbasis Wochenbasis
Monatsbasis Jahresbasis      Datenbasis: Original-Daten
Darstellen als:
Statistik (Auto) Statistik J:M      Darstellung:
Zur Graphik,    zurück zur Übersicht aller Sensoren.
 
Tabellarische Datenbersicht: ?
 
Sensor: Nr:Datum:Temp:Abs-Feuchte:Windchill:Wind:
Aussen-T/F 1 31-03-2020 00:00:00 4.4 C 4.7 g/m*3 4.4 C 1.6 km/h
2 31-03-2020 00:05:00 4.4 C 4.7 g/m*3 4.4 C 0 km/h
3 31-03-2020 00:10:00 4.4 C 4.7 g/m*3 4.4 C 0 km/h
4 31-03-2020 00:15:00 4.5 C 4.73 g/m*3 4.5 C 3.2 km/h
5 31-03-2020 00:20:00 4.5 C 4.73 g/m*3 4.5 C 3.2 km/h
6 31-03-2020 00:25:00 4.5 C 4.8 g/m*3 4.5 C 3.2 km/h
7 31-03-2020 00:30:00 4.5 C 4.8 g/m*3 4.5 C 1.6 km/h
8 31-03-2020 00:35:00 4.4 C 4.77 g/m*3 4.4 C 0 km/h
9 31-03-2020 00:40:00 4.5 C 4.8 g/m*3 4.5 C 0 km/h
10 31-03-2020 00:45:00 4.5 C 4.8 g/m*3 4.5 C 0 km/h
11 31-03-2020 00:50:00 4.6 C 4.83 g/m*3 4.6 C 0 km/h
12 31-03-2020 00:55:00 4.6 C 4.96 g/m*3 4.6 C 4.8 km/h
13 31-03-2020 01:00:00 4.7 C 5 g/m*3 4.7 C 0 km/h
14 31-03-2020 01:05:00 4.7 C 5.06 g/m*3 4.7 C 1.6 km/h
15 31-03-2020 01:10:00 4.7 C 5.06 g/m*3 4.7 C 1.6 km/h
16 31-03-2020 01:15:00 4.7 C 5.06 g/m*3 4.7 C 1.6 km/h
17 31-03-2020 01:20:00 4.7 C 5.13 g/m*3 4.7 C 1.6 km/h
18 31-03-2020 01:25:00 4.6 C 5.16 g/m*3 4.6 C 1.6 km/h
19 31-03-2020 01:30:00 4.5 C 5.19 g/m*3 4.5 C 3.2 km/h
20 31-03-2020 01:35:00 4.5 C 5.26 g/m*3 4.5 C 0 km/h
21 31-03-2020 01:40:00 4.5 C 5.26 g/m*3 3.02 C 6.4 km/h
22 31-03-2020 01:45:00 4.5 C 5.32 g/m*3 4.5 C 1.6 km/h
23 31-03-2020 01:50:00 4.6 C 5.36 g/m*3 4.6 C 1.6 km/h
24 31-03-2020 01:55:00 4.6 C 5.43 g/m*3 4.6 C 4.8 km/h
25 31-03-2020 02:00:00 4.6 C 5.43 g/m*3 4.6 C 3.2 km/h
Sensor: Nr:Datum:Temp:Abs-Feuchte:Windchill:Wind:
Aussen-T/F 26 31-03-2020 02:05:00 4.5 C 5.32 g/m*3 4.5 C 0 km/h
27 31-03-2020 02:10:00 4.4 C 5.35 g/m*3 4.4 C 4.8 km/h
28 31-03-2020 02:15:00 4.3 C 5.32 g/m*3 4.3 C 4.8 km/h
29 31-03-2020 02:20:00 4.2 C 5.35 g/m*3 4.2 C 3.2 km/h
30 31-03-2020 02:25:00 4.1 C 5.31 g/m*3 4.1 C 0 km/h
31 31-03-2020 02:30:00 4.1 C 5.38 g/m*3 4.1 C 0 km/h
32 31-03-2020 02:35:00 4.1 C 5.38 g/m*3 4.1 C 0 km/h
33 31-03-2020 02:40:00 4 C 5.34 g/m*3 4 C 0 km/h
34 31-03-2020 02:45:00 3.9 C 5.31 g/m*3 3.9 C 0 km/h
35 31-03-2020 02:50:00 3.8 C 5.27 g/m*3 3.8 C 0 km/h
36 31-03-2020 02:55:00 3.6 C 5.2 g/m*3 3.6 C 0 km/h
37 31-03-2020 03:00:00 3.4 C 5.19 g/m*3 3.4 C 1.6 km/h
38 31-03-2020 03:05:00 3.4 C 5.25 g/m*3 3.4 C 0 km/h
39 31-03-2020 03:10:00 3.3 C 5.22 g/m*3 3.3 C 0 km/h
40 31-03-2020 03:15:00 3.2 C 5.18 g/m*3 3.2 C 3.2 km/h
41 31-03-2020 03:20:00 3.2 C 5.24 g/m*3 3.2 C 3.2 km/h
42 31-03-2020 03:25:00 3.1 C 5.21 g/m*3 3.1 C 1.6 km/h
43 31-03-2020 03:30:00 3.1 C 5.27 g/m*3 3.1 C 1.6 km/h
44 31-03-2020 03:35:00 3.1 C 5.27 g/m*3 3.1 C 1.6 km/h
45 31-03-2020 03:40:00 3.1 C 5.27 g/m*3 3.1 C 0 km/h
46 31-03-2020 03:45:00 3 C 5.23 g/m*3 3 C 0 km/h
47 31-03-2020 03:50:00 2.9 C 5.2 g/m*3 2.9 C 0 km/h
48 31-03-2020 03:55:00 2.9 C 5.26 g/m*3 2.9 C 0 km/h
49 31-03-2020 04:00:00 3 C 5.29 g/m*3 3 C 0 km/h
50 31-03-2020 04:05:00 3.1 C 5.39 g/m*3 3.1 C 0 km/h
Sensor: Nr:Datum:Temp:Abs-Feuchte:Windchill:Wind:
Aussen-T/F 51 31-03-2020 04:10:00 3.2 C 5.42 g/m*3 3.2 C 0 km/h
52 31-03-2020 04:15:00 3.2 C 5.42 g/m*3 3.2 C 0 km/h
53 31-03-2020 04:20:00 3.3 C 5.46 g/m*3 3.3 C 1.6 km/h
54 31-03-2020 04:25:00 3.4 C 5.5 g/m*3 3.4 C 0 km/h
55 31-03-2020 04:30:00 3.4 C 5.5 g/m*3 3.4 C 0 km/h
56 31-03-2020 04:35:00 3.4 C 5.5 g/m*3 3.4 C 0 km/h
57 31-03-2020 04:40:00 3.5 C 5.53 g/m*3 3.5 C 0 km/h
58 31-03-2020 04:45:00 3.5 C 5.53 g/m*3 3.5 C 0 km/h
59 31-03-2020 04:50:00 3.6 C 5.57 g/m*3 3.6 C 1.6 km/h
60 31-03-2020 04:55:00 3.6 C 5.57 g/m*3 3.6 C 0 km/h
61 31-03-2020 05:00:00 3.7 C 5.61 g/m*3 3.7 C 0 km/h
62 31-03-2020 05:05:00 3.7 C 5.61 g/m*3 3.7 C 0 km/h
63 31-03-2020 05:10:00 3.7 C 5.55 g/m*3 3.7 C 0 km/h
64 31-03-2020 05:15:00 3.7 C 5.55 g/m*3 3.7 C 0 km/h
65 31-03-2020 05:20:00 3.6 C 5.51 g/m*3 3.6 C 0 km/h
66 31-03-2020 05:25:00 3.4 C 5.44 g/m*3 3.4 C 0 km/h
67 31-03-2020 05:30:00 3.3 C 5.4 g/m*3 3.3 C 0 km/h
68 31-03-2020 05:35:00 3.2 C 5.36 g/m*3 3.2 C 1.6 km/h
69 31-03-2020 05:40:00 3.1 C 5.27 g/m*3 3.1 C 1.6 km/h
70 31-03-2020 05:45:00 2.8 C 5.16 g/m*3 2.8 C 1.6 km/h
71 31-03-2020 05:50:00 2.7 C 5.13 g/m*3 2.7 C 0 km/h
72 31-03-2020 05:55:00 2.4 C 5.02 g/m*3 2.4 C 3.2 km/h
73 31-03-2020 06:00:00 2.3 C 4.99 g/m*3 2.3 C 3.2 km/h
74 31-03-2020 06:05:00 2.2 C 5.01 g/m*3 2.2 C 1.6 km/h
75 31-03-2020 06:10:00 2.1 C 4.98 g/m*3 2.1 C 1.6 km/h
Sensor: Nr:Datum:Temp:Abs-Feuchte:Windchill:Wind:
Aussen-T/F 76 31-03-2020 06:15:00 1.9 C 4.91 g/m*3 1.9 C 0 km/h
77 31-03-2020 06:20:00 1.9 C 4.97 g/m*3 1.9 C 0 km/h
78 31-03-2020 06:25:00 1.9 C 4.97 g/m*3 1.9 C 0 km/h
79 31-03-2020 06:30:00 2 C 5.06 g/m*3 2 C 0 km/h
80 31-03-2020 06:35:00 2.2 C 5.18 g/m*3 2.2 C 0 km/h
81 31-03-2020 06:40:00 2.3 C 5.22 g/m*3 2.3 C 0 km/h
82 31-03-2020 06:45:00 2.3 C 5.22 g/m*3 2.3 C 0 km/h
83 31-03-2020 06:50:00 2.4 C 5.25 g/m*3 2.4 C 0 km/h
84 31-03-2020 06:55:00 2.5 C 5.29 g/m*3 2.5 C 0 km/h
85 31-03-2020 07:00:00 2.6 C 5.32 g/m*3 2.6 C 0 km/h
86 31-03-2020 07:05:00 2.6 C 5.32 g/m*3 2.6 C 0 km/h
87 31-03-2020 07:10:00 2.7 C 5.36 g/m*3 2.7 C 0 km/h
88 31-03-2020 07:15:00 2.7 C 5.36 g/m*3 2.7 C 0 km/h
89 31-03-2020 07:20:00 2.7 C 5.36 g/m*3 2.7 C 0 km/h
90 31-03-2020 07:25:00 2.7 C 5.36 g/m*3 2.7 C 0 km/h
91 31-03-2020 07:30:00 2.7 C 5.36 g/m*3 2.7 C 0 km/h
92 31-03-2020 07:35:00 2.7 C 5.36 g/m*3 2.7 C 0 km/h
93 31-03-2020 07:40:00 2.7 C 5.36 g/m*3 2.7 C 0 km/h
94 31-03-2020 07:45:00 2.6 C 5.27 g/m*3 2.6 C 0 km/h
95 31-03-2020 07:50:00 2.6 C 5.32 g/m*3 2.6 C 0 km/h
96 31-03-2020 07:55:00 2.6 C 5.32 g/m*3 2.6 C 0 km/h
97 31-03-2020 08:00:00 2.7 C 5.36 g/m*3 2.7 C 0 km/h
98 31-03-2020 08:05:00 2.8 C 5.4 g/m*3 2.8 C 0 km/h
99 31-03-2020 08:10:00 2.9 C 5.43 g/m*3 2.9 C 0 km/h
100 31-03-2020 08:15:00 3.1 C 5.57 g/m*3 3.1 C 0 km/h
Sensor: Nr:Datum:Temp:Abs-Feuchte:Windchill:Wind:
Aussen-T/F 101 31-03-2020 08:20:00 3.3 C 5.58 g/m*3 3.3 C 0 km/h
102 31-03-2020 08:25:00 3.4 C 5.62 g/m*3 3.4 C 0 km/h
103 31-03-2020 08:30:00 3.6 C 5.63 g/m*3 3.6 C 0 km/h
104 31-03-2020 08:35:00 3.7 C 5.67 g/m*3 3.7 C 1.6 km/h
105 31-03-2020 08:40:00 3.8 C 5.58 g/m*3 2.21 C 6.4 km/h
106 31-03-2020 08:45:00 3.9 C 5.49 g/m*3 1.82 C 8.1 km/h
107 31-03-2020 08:50:00 4.1 C 5.44 g/m*3 2.05 C 8.1 km/h
108 31-03-2020 08:55:00 4.2 C 5.35 g/m*3 2.67 C 6.4 km/h
109 31-03-2020 09:00:00 4.3 C 5.25 g/m*3 1.55 C 11.3 km/h
110 31-03-2020 09:05:00 4.4 C 5.22 g/m*3 2.4 C 8.1 km/h
111 31-03-2020 09:10:00 4.4 C 5.09 g/m*3 4.4 C 4.8 km/h
112 31-03-2020 09:15:00 4.4 C 5.09 g/m*3 2.9 C 6.4 km/h
113 31-03-2020 09:20:00 4.4 C 5.03 g/m*3 2.01 C 9.7 km/h
114 31-03-2020 09:25:00 4.5 C 5.06 g/m*3 2.52 C 8.1 km/h
115 31-03-2020 09:30:00 4.5 C 5.06 g/m*3 4.5 C 4.8 km/h
116 31-03-2020 09:35:00 4.6 C 5.03 g/m*3 2.64 C 8.1 km/h
117 31-03-2020 09:40:00 4.6 C 4.96 g/m*3 3.13 C 6.4 km/h
118 31-03-2020 09:45:00 4.6 C 5.03 g/m*3 4.6 C 4.8 km/h
119 31-03-2020 09:50:00 4.7 C 4.86 g/m*3 1.73 C 12.9 km/h
120 31-03-2020 09:55:00 4.8 C 5.03 g/m*3 4.8 C 4.8 km/h
121 31-03-2020 10:00:00 4.9 C 5 g/m*3 3.48 C 6.4 km/h
122 31-03-2020 10:05:00 4.9 C 4.86 g/m*3 2.27 C 11.3 km/h
123 31-03-2020 10:10:00 4.9 C 4.93 g/m*3 2.27 C 11.3 km/h
124 31-03-2020 10:15:00 4.9 C 4.93 g/m*3 2.99 C 8.1 km/h
125 31-03-2020 10:20:00 4.9 C 4.93 g/m*3 2.27 C 11.3 km/h
Sensor: Nr:Datum:Temp:Abs-Feuchte:Windchill:Wind:
Aussen-T/F 126 31-03-2020 10:25:00 4.9 C 4.86 g/m*3 4.9 C 4.8 km/h
127 31-03-2020 10:30:00 4.8 C 4.83 g/m*3 4.8 C 4.8 km/h
128 31-03-2020 10:35:00 4.8 C 4.83 g/m*3 1.58 C 14.5 km/h
129 31-03-2020 10:40:00 4.8 C 4.76 g/m*3 2.49 C 9.7 km/h
130 31-03-2020 10:45:00 4.8 C 4.76 g/m*3 2.49 C 9.7 km/h
131 31-03-2020 10:50:00 4.8 C 4.69 g/m*3 2.87 C 8.1 km/h
132 31-03-2020 10:55:00 4.8 C 4.69 g/m*3 2.49 C 9.7 km/h
133 31-03-2020 11:00:00 4.8 C 4.69 g/m*3 2.49 C 9.7 km/h
134 31-03-2020 11:05:00 4.8 C 4.69 g/m*3 2.87 C 8.1 km/h
135 31-03-2020 11:10:00 4.8 C 4.63 g/m*3 1.11 C 17.7 km/h
136 31-03-2020 11:15:00 4.9 C 4.59 g/m*3 2.61 C 9.7 km/h
137 31-03-2020 11:20:00 5.1 C 4.65 g/m*3 2.84 C 9.7 km/h
138 31-03-2020 11:25:00 5.2 C 4.61 g/m*3 2.96 C 9.7 km/h
139 31-03-2020 11:30:00 5.4 C 4.6 g/m*3 4.06 C 6.4 km/h
140 31-03-2020 11:35:00 5.5 C 4.57 g/m*3 3.32 C 9.7 km/h
141 31-03-2020 11:40:00 5.6 C 4.52 g/m*3 2.83 C 12.9 km/h
142 31-03-2020 11:45:00 5.6 C 4.52 g/m*3 2.83 C 12.9 km/h
143 31-03-2020 11:50:00 5.6 C 4.52 g/m*3 2.33 C 16.1 km/h
144 31-03-2020 11:55:00 5.7 C 4.41 g/m*3 2.95 C 12.9 km/h
145 31-03-2020 12:00:00 5.8 C 4.44 g/m*3 4.52 C 6.4 km/h
146 31-03-2020 12:05:00 5.9 C 4.4 g/m*3 4.17 C 8.1 km/h
147 31-03-2020 12:10:00 6 C 4.43 g/m*3 6 C 3.2 km/h
148 31-03-2020 12:15:00 6.3 C 4.29 g/m*3 3.68 C 12.9 km/h
149 31-03-2020 12:20:00 6.6 C 4.23 g/m*3 4.32 C 11.3 km/h
150 31-03-2020 12:25:00 6.6 C 4.15 g/m*3 3.57 C 16.1 km/h
Sensor: Nr:Datum:Temp:Abs-Feuchte:Windchill:Wind:
Aussen-T/F 151 31-03-2020 12:30:00 6.8 C 4.21 g/m*3 4.29 C 12.9 km/h
152 31-03-2020 12:35:00 6.9 C 4.08 g/m*3 4.68 C 11.3 km/h
153 31-03-2020 12:40:00 7.2 C 4.24 g/m*3 4.31 C 16.1 km/h
154 31-03-2020 12:45:00 7.2 C 4.16 g/m*3 4.77 C 12.9 km/h
155 31-03-2020 12:50:00 7.2 C 4.16 g/m*3 5.04 C 11.3 km/h
156 31-03-2020 12:55:00 7.2 C 4.24 g/m*3 5.35 C 9.7 km/h
157 31-03-2020 13:00:00 7.2 C 4.08 g/m*3 4.53 C 14.5 km/h
158 31-03-2020 13:05:00 7.1 C 3.98 g/m*3 5.23 C 9.7 km/h
159 31-03-2020 13:10:00 6.9 C 3.93 g/m*3 5.34 C 8.1 km/h
160 31-03-2020 13:15:00 7 C 3.95 g/m*3 5.11 C 9.7 km/h
161 31-03-2020 13:20:00 7 C 3.8 g/m*3 4.8 C 11.3 km/h
162 31-03-2020 13:25:00 7.1 C 3.82 g/m*3 4.65 C 12.9 km/h
163 31-03-2020 13:30:00 7.2 C 3.77 g/m*3 5.69 C 8.1 km/h
164 31-03-2020 13:35:00 7.4 C 3.82 g/m*3 5.02 C 12.9 km/h
165 31-03-2020 13:40:00 7.7 C 3.73 g/m*3 4.73 C 17.7 km/h
166 31-03-2020 13:45:00 7.7 C 3.57 g/m*3 5.38 C 12.9 km/h
167 31-03-2020 13:50:00 7.8 C 3.59 g/m*3 5.51 C 12.9 km/h
168 31-03-2020 13:55:00 8 C 3.55 g/m*3 5.75 C 12.9 km/h
169 31-03-2020 14:00:00 8.2 C 3.6 g/m*3 5.55 C 16.1 km/h
170 31-03-2020 14:05:00 8.2 C 3.6 g/m*3 5.99 C 12.9 km/h
171 31-03-2020 14:10:00 8.2 C 3.68 g/m*3 5.76 C 14.5 km/h
172 31-03-2020 14:15:00 8.5 C 3.76 g/m*3 6.61 C 11.3 km/h
173 31-03-2020 14:20:00 8.8 C 3.92 g/m*3 6.97 C 11.3 km/h
174 31-03-2020 14:25:00 8.8 C 3.83 g/m*3 5.93 C 19.3 km/h
175 31-03-2020 14:30:00 8.7 C 3.81 g/m*3 6.17 C 16.1 km/h
Sensor: Nr:Datum:Temp:Abs-Feuchte:Windchill:Wind:
Aussen-T/F 176 31-03-2020 14:35:00 8.8 C 3.74 g/m*3 6.72 C 12.9 km/h
177 31-03-2020 14:40:00 8.7 C 3.63 g/m*3 6.17 C 16.1 km/h
178 31-03-2020 14:45:00 8.8 C 3.66 g/m*3 6.72 C 12.9 km/h
179 31-03-2020 14:50:00 8.8 C 3.66 g/m*3 6.5 C 14.5 km/h
180 31-03-2020 14:55:00 8.8 C 3.66 g/m*3 6.97 C 11.3 km/h
181 31-03-2020 15:00:00 8.9 C 3.68 g/m*3 6.85 C 12.9 km/h
182 31-03-2020 15:05:00 8.9 C 3.42 g/m*3 7.09 C 11.3 km/h
183 31-03-2020 15:10:00 8.8 C 3.66 g/m*3 6.3 C 16.1 km/h
184 31-03-2020 15:15:00 8.9 C 3.59 g/m*3 6.62 C 14.5 km/h
185 31-03-2020 15:20:00 8.9 C 3.59 g/m*3 6.62 C 14.5 km/h
186 31-03-2020 15:25:00 9 C 3.61 g/m*3 8.21 C 6.4 km/h
187 31-03-2020 15:30:00 9.1 C 3.64 g/m*3 7.33 C 11.3 km/h
188 31-03-2020 15:35:00 9.1 C 3.55 g/m*3 7.33 C 11.3 km/h
189 31-03-2020 15:40:00 9.1 C 3.55 g/m*3 6.31 C 19.3 km/h
190 31-03-2020 15:45:00 9.2 C 3.57 g/m*3 7.21 C 12.9 km/h
191 31-03-2020 15:50:00 9.3 C 3.5 g/m*3 7.12 C 14.5 km/h
192 31-03-2020 15:55:00 9.3 C 3.5 g/m*3 7.33 C 12.9 km/h
193 31-03-2020 16:00:00 9.5 C 3.64 g/m*3 7.58 C 12.9 km/h
194 31-03-2020 16:05:00 9.6 C 3.57 g/m*3 7.94 C 11.3 km/h
195 31-03-2020 16:10:00 9.6 C 3.48 g/m*3 6.94 C 19.3 km/h
196 31-03-2020 16:15:00 9.6 C 3.57 g/m*3 8.52 C 8.1 km/h
197 31-03-2020 16:20:00 9.7 C 3.6 g/m*3 7.41 C 16.1 km/h
198 31-03-2020 16:25:00 9.8 C 3.43 g/m*3 7.54 C 16.1 km/h
199 31-03-2020 16:30:00 9.9 C 3.45 g/m*3 7.66 C 16.1 km/h
200 31-03-2020 16:35:00 10 C 3.66 g/m*3 8.19 C 12.9 km/h
Sensor: Nr:Datum:Temp:Abs-Feuchte:Windchill:Wind:
Aussen-T/F 201 31-03-2020 16:40:00 10.1 C 3.5 g/m*3 7.42 C 20.9 km/h
202 31-03-2020 16:45:00 9.9 C 3.36 g/m*3 8.06 C 12.9 km/h
203 31-03-2020 16:50:00 10 C 3.57 g/m*3 7.61 C 17.7 km/h
204 31-03-2020 16:55:00 10.1 C 3.5 g/m*3 7.57 C 19.3 km/h
205 31-03-2020 17:00:00 10 C 3.38 g/m*3 8.42 C 11.3 km/h
206 31-03-2020 17:05:00 10.2 C 3.71 g/m*3 9.22 C 8.1 km/h
207 31-03-2020 17:10:00 10.6 C 3.51 g/m*3 9.69 C 8.1 km/h
208 31-03-2020 17:15:00 10.9 C 3.58 g/m*3 10.04 C 8.1 km/h
209 31-03-2020 17:20:00 11.2 C 3.65 g/m*3 11.2 C 9.7 km/h
210 31-03-2020 17:25:00 11.3 C 3.67 g/m*3 11.3 C 9.7 km/h
211 31-03-2020 17:30:00 11.3 C 3.47 g/m*3 11.3 C 6.4 km/h
212 31-03-2020 17:35:00 11.1 C 3.53 g/m*3 11.1 C 16.1 km/h
213 31-03-2020 17:40:00 11.1 C 3.53 g/m*3 11.1 C 6.4 km/h
214 31-03-2020 17:45:00 11 C 3.6 g/m*3 9.4 C 12.9 km/h
215 31-03-2020 17:50:00 10.9 C 3.38 g/m*3 8.9 C 16.1 km/h
216 31-03-2020 17:55:00 10.5 C 3.39 g/m*3 8.59 C 14.5 km/h
217 31-03-2020 18:00:00 10.5 C 3.39 g/m*3 8.8 C 12.9 km/h
218 31-03-2020 18:05:00 10.7 C 3.44 g/m*3 8.65 C 16.1 km/h
219 31-03-2020 18:10:00 10.8 C 3.56 g/m*3 10.8 C 4.8 km/h
220 31-03-2020 18:15:00 11.2 C 3.65 g/m*3 11.2 C 3.2 km/h
221 31-03-2020 18:20:00 11.3 C 3.57 g/m*3 11.3 C 16.1 km/h
222 31-03-2020 18:25:00 10.9 C 3.48 g/m*3 9.28 C 12.9 km/h
223 31-03-2020 18:30:00 10.7 C 3.63 g/m*3 9.52 C 9.7 km/h
224 31-03-2020 18:35:00 10.7 C 3.54 g/m*3 9.81 C 8.1 km/h
225 31-03-2020 18:40:00 10.6 C 3.51 g/m*3 9.14 C 11.3 km/h
Sensor: Nr:Datum:Temp:Abs-Feuchte:Windchill:Wind:
Aussen-T/F 226 31-03-2020 18:45:00 10.6 C 3.61 g/m*3 10.6 C 4.8 km/h
227 31-03-2020 18:50:00 10.7 C 3.44 g/m*3 10.18 C 6.4 km/h
228 31-03-2020 18:55:00 10.6 C 3.51 g/m*3 10.6 C 4.8 km/h
229 31-03-2020 19:00:00 10.6 C 3.51 g/m*3 9.69 C 8.1 km/h
230 31-03-2020 19:05:00 10.3 C 3.54 g/m*3 8.78 C 11.3 km/h
231 31-03-2020 19:10:00 10.1 C 3.4 g/m*3 8.8 C 9.7 km/h
232 31-03-2020 19:15:00 10.1 C 3.5 g/m*3 10.1 C 3.2 km/h
233 31-03-2020 19:20:00 10.1 C 3.5 g/m*3 9.1 C 8.1 km/h
234 31-03-2020 19:25:00 9.9 C 3.45 g/m*3 9.9 C 3.2 km/h
235 31-03-2020 19:30:00 9.8 C 3.53 g/m*3 9.8 C 4.8 km/h
236 31-03-2020 19:35:00 9.7 C 3.78 g/m*3 9.7 C 1.6 km/h
237 31-03-2020 19:40:00 9.4 C 3.71 g/m*3 9.4 C 1.6 km/h
238 31-03-2020 19:45:00 9.2 C 3.93 g/m*3 9.2 C 1.6 km/h
239 31-03-2020 19:50:00 8.7 C 4.06 g/m*3 8.7 C 3.2 km/h
240 31-03-2020 19:55:00 8.2 C 4.02 g/m*3 8.2 C 3.2 km/h
241 31-03-2020 20:00:00 7.6 C 4.11 g/m*3 7.6 C 4.8 km/h
242 31-03-2020 20:05:00 7 C 4.03 g/m*3 7 C 4.8 km/h
243 31-03-2020 20:10:00 6.5 C 4.05 g/m*3 6.5 C 3.2 km/h
244 31-03-2020 20:15:00 6.1 C 4.09 g/m*3 6.1 C 3.2 km/h
245 31-03-2020 20:20:00 5.7 C 3.99 g/m*3 5.7 C 4.8 km/h
246 31-03-2020 20:25:00 5.3 C 4.02 g/m*3 5.3 C 4.8 km/h
247 31-03-2020 20:30:00 5.1 C 4.04 g/m*3 5.1 C 4.8 km/h
248 31-03-2020 20:35:00 4.8 C 4.02 g/m*3 4.8 C 3.2 km/h
249 31-03-2020 20:40:00 4.6 C 4.04 g/m*3 4.6 C 3.2 km/h
250 31-03-2020 20:45:00 4.4 C 3.98 g/m*3 4.4 C 3.2 km/h
Sensor: Nr:Datum:Temp:Abs-Feuchte:Windchill:Wind:
Aussen-T/F 251 31-03-2020 20:50:00 4.2 C 3.99 g/m*3 4.2 C 4.8 km/h
252 31-03-2020 20:55:00 4.1 C 4.03 g/m*3 4.1 C 4.8 km/h
253 31-03-2020 21:00:00 3.9 C 3.98 g/m*3 3.9 C 4.8 km/h
254 31-03-2020 21:05:00 3.8 C 4.02 g/m*3 3.8 C 3.2 km/h
255 31-03-2020 21:10:00 3.7 C 3.99 g/m*3 3.7 C 1.6 km/h
256 31-03-2020 21:15:00 3.6 C 3.96 g/m*3 3.6 C 3.2 km/h
257 31-03-2020 21:20:00 3.5 C 3.94 g/m*3 3.5 C 4.8 km/h
258 31-03-2020 21:25:00 3.4 C 3.97 g/m*3 3.4 C 4.8 km/h
259 31-03-2020 21:30:00 3.3 C 3.88 g/m*3 3.3 C 3.2 km/h
260 31-03-2020 21:35:00 3.3 C 3.94 g/m*3 3.3 C 3.2 km/h
261 31-03-2020 21:40:00 3.2 C 3.98 g/m*3 3.2 C 3.2 km/h
262 31-03-2020 21:45:00 3.1 C 3.95 g/m*3 1.4 C 6.4 km/h
263 31-03-2020 21:50:00 3 C 3.92 g/m*3 3 C 4.8 km/h
264 31-03-2020 21:55:00 2.9 C 3.9 g/m*3 2.9 C 3.2 km/h
265 31-03-2020 22:00:00 2.8 C 3.87 g/m*3 2.8 C 4.8 km/h
266 31-03-2020 22:05:00 2.8 C 3.93 g/m*3 2.8 C 3.2 km/h
267 31-03-2020 22:10:00 2.7 C 3.9 g/m*3 2.7 C 4.8 km/h
268 31-03-2020 22:15:00 2.6 C 3.94 g/m*3 2.6 C 4.8 km/h
269 31-03-2020 22:20:00 2.5 C 3.91 g/m*3 2.5 C 4.8 km/h
270 31-03-2020 22:25:00 2.4 C 3.88 g/m*3 2.4 C 4.8 km/h
271 31-03-2020 22:30:00 2.3 C 3.86 g/m*3 2.3 C 4.8 km/h
272 31-03-2020 22:35:00 2.3 C 3.91 g/m*3 2.3 C 4.8 km/h
273 31-03-2020 22:40:00 2.2 C 3.89 g/m*3 2.2 C 4.8 km/h
274 31-03-2020 22:45:00 2.2 C 3.94 g/m*3 2.2 C 4.8 km/h
275 31-03-2020 22:50:00 2.1 C 3.86 g/m*3 2.1 C 4.8 km/h
Sensor: Nr:Datum:Temp:Abs-Feuchte:Windchill:Wind:
Aussen-T/F 276 31-03-2020 22:55:00 2 C 3.89 g/m*3 2 C 3.2 km/h
277 31-03-2020 23:00:00 1.9 C 3.86 g/m*3 1.9 C 4.8 km/h
278 31-03-2020 23:05:00 1.8 C 3.89 g/m*3 1.8 C 3.2 km/h
279 31-03-2020 23:10:00 1.7 C 3.87 g/m*3 1.7 C 4.8 km/h
280 31-03-2020 23:15:00 1.7 C 3.92 g/m*3 1.7 C 4.8 km/h
281 31-03-2020 23:20:00 1.6 C 3.89 g/m*3 1.6 C 3.2 km/h
282 31-03-2020 23:25:00 1.4 C 3.89 g/m*3 1.4 C 3.2 km/h
283 31-03-2020 23:30:00 1.3 C 3.87 g/m*3 1.3 C 4.8 km/h
284 31-03-2020 23:35:00 1.2 C 3.84 g/m*3 1.2 C 4.8 km/h
285 31-03-2020 23:40:00 1.2 C 3.89 g/m*3 1.2 C 4.8 km/h
286 31-03-2020 23:45:00 1.1 C 3.87 g/m*3 1.1 C 3.2 km/h
287 31-03-2020 23:50:00 1.1 C 3.87 g/m*3 1.1 C 3.2 km/h
288 31-03-2020 23:55:00 1.1 C 3.87 g/m*3 1.1 C 3.2 km/h
289 01-04-2020 00:00:00 1 C 3.84 g/m*3 1 C 3.2 km/h
290 01-04-2020 00:05:00 0.9 C 3.81 g/m*3 0.9 C 1.6 km/h
291 01-04-2020 00:10:00 0.8 C 3.84 g/m*3 0.8 C 1.6 km/h
292 01-04-2020 00:15:00 0.8 C 3.84 g/m*3 0.8 C 3.2 km/h
293 01-04-2020 00:20:00 0.7 C 3.81 g/m*3 0.7 C 3.2 km/h
294 01-04-2020 00:25:00 0.6 C 3.79 g/m*3 0.6 C 4.8 km/h
295 01-04-2020 00:30:00 0.6 C 3.79 g/m*3 0.6 C 4.8 km/h
296 01-04-2020 00:35:00 0.4 C 3.74 g/m*3 0.4 C 1.6 km/h
297 01-04-2020 00:40:00 0.4 C 3.74 g/m*3 0.4 C 3.2 km/h
298 01-04-2020 00:45:00 0.3 C 3.76 g/m*3 0.3 C 4.8 km/h
299 01-04-2020 00:50:00 0.3 C 3.71 g/m*3 0.3 C 0 km/h
300 01-04-2020 00:55:00 0.3 C 3.76 g/m*3 0.3 C 3.2 km/h
Sensor: Nr:Datum:Temp:Abs-Feuchte:Windchill:Wind:
Aussen-T/F 301 01-04-2020 01:00:00 0.2 C 3.73 g/m*3 0.2 C 3.2 km/h
302 01-04-2020 01:05:00 0.2 C 3.78 g/m*3 0.2 C 3.2 km/h
303 01-04-2020 01:10:00 0.1 C 3.76 g/m*3 0.1 C 3.2 km/h
304 01-04-2020 01:15:00 0.1 C 3.81 g/m*3 0.1 C 0 km/h
305 01-04-2020 01:20:00 0 C 3.78 g/m*3 0 C 0 km/h
306 01-04-2020 01:25:00 -0.1 C 3.75 g/m*3 -0.1 C 0 km/h
307 01-04-2020 01:30:00 -0.2 C 3.73 g/m*3 -0.2 C 0 km/h
308 01-04-2020 01:35:00 -0.2 C 3.73 g/m*3 -0.2 C 1.6 km/h
309 01-04-2020 01:40:00 -0.3 C 3.75 g/m*3 -0.3 C 0 km/h
310 01-04-2020 01:45:00 -0.4 C 3.72 g/m*3 -0.4 C 0 km/h
311 01-04-2020 01:50:00 -0.5 C 3.7 g/m*3 -0.5 C 0 km/h
312 01-04-2020 01:55:00 -0.6 C 3.67 g/m*3 -0.6 C 0 km/h
313 01-04-2020 02:00:00 -0.7 C 3.65 g/m*3 -0.7 C 0 km/h
314 01-04-2020 02:05:00 -0.8 C 3.62 g/m*3 -0.8 C 0 km/h
315 01-04-2020 02:10:00 -0.8 C 3.67 g/m*3 -0.8 C 0 km/h
316 01-04-2020 02:15:00 -0.9 C 3.64 g/m*3 -0.9 C 0 km/h
317 01-04-2020 02:20:00 -0.9 C 3.64 g/m*3 -0.9 C 0 km/h
318 01-04-2020 02:25:00 -1 C 3.62 g/m*3 -1 C 0 km/h
319 01-04-2020 02:30:00 -1.1 C 3.59 g/m*3 -1.1 C 0 km/h
320 01-04-2020 02:35:00 -1.1 C 3.59 g/m*3 -1.1 C 0 km/h
321 01-04-2020 02:40:00 -1.2 C 3.57 g/m*3 -1.2 C 0 km/h
322 01-04-2020 02:45:00 -1.2 C 3.61 g/m*3 -1.2 C 0 km/h
323 01-04-2020 02:50:00 -1.3 C 3.59 g/m*3 -1.3 C 0 km/h
324 01-04-2020 02:55:00 -1.3 C 3.59 g/m*3 -1.3 C 0 km/h
325 01-04-2020 03:00:00 -1.3 C 3.59 g/m*3 -1.3 C 0 km/h
Sensor: Nr:Datum:Temp:Abs-Feuchte:Windchill:Wind:
Aussen-T/F 326 01-04-2020 03:05:00 -1.4 C 3.52 g/m*3 -1.4 C 0 km/h
327 01-04-2020 03:10:00 -1.4 C 3.52 g/m*3 -1.4 C 0 km/h
328 01-04-2020 03:15:00 -1.5 C 3.49 g/m*3 -1.5 C 0 km/h
329 01-04-2020 03:20:00 -1.6 C 3.51 g/m*3 -1.6 C 0 km/h
330 01-04-2020 03:25:00 -1.7 C 3.49 g/m*3 -1.7 C 0 km/h
331 01-04-2020 03:30:00 -1.7 C 3.49 g/m*3 -1.7 C 0 km/h
332 01-04-2020 03:35:00 -1.7 C 3.49 g/m*3 -1.7 C 0 km/h
333 01-04-2020 03:40:00 -1.8 C 3.46 g/m*3 -1.8 C 0 km/h
334 01-04-2020 03:45:00 -1.8 C 3.42 g/m*3 -1.8 C 0 km/h
335 01-04-2020 03:50:00 -1.9 C 3.44 g/m*3 -1.9 C 0 km/h
336 01-04-2020 03:55:00 -1.9 C 3.44 g/m*3 -1.9 C 0 km/h
337 01-04-2020 04:00:00 -1.9 C 3.44 g/m*3 -1.9 C 0 km/h
338 01-04-2020 04:05:00 -1.9 C 3.44 g/m*3 -1.9 C 0 km/h
339 01-04-2020 04:10:00 -2 C 3.41 g/m*3 -2 C 0 km/h
340 01-04-2020 04:15:00 -2.1 C 3.39 g/m*3 -2.1 C 0 km/h
341 01-04-2020 04:20:00 -2.1 C 3.39 g/m*3 -2.1 C 0 km/h
342 01-04-2020 04:25:00 -2.2 C 3.33 g/m*3 -2.2 C 0 km/h
343 01-04-2020 04:30:00 -2.2 C 3.37 g/m*3 -2.2 C 0 km/h
344 01-04-2020 04:35:00 -2.3 C 3.34 g/m*3 -2.3 C 0 km/h
345 01-04-2020 04:40:00 -2.3 C 3.34 g/m*3 -2.3 C 0 km/h
346 01-04-2020 04:45:00 -2.3 C 3.34 g/m*3 -2.3 C 0 km/h
347 01-04-2020 04:50:00 -2.4 C 3.32 g/m*3 -2.4 C 0 km/h
348 01-04-2020 04:55:00 -2.4 C 3.32 g/m*3 -2.4 C 0 km/h
349 01-04-2020 05:00:00 -2.4 C 3.36 g/m*3 -2.4 C 0 km/h
350 01-04-2020 05:05:00 -2.5 C 3.34 g/m*3 -2.5 C 0 km/h
Sensor: Nr:Datum:Temp:Abs-Feuchte:Windchill:Wind:
Aussen-T/F 351 01-04-2020 05:10:00 -2.6 C 3.31 g/m*3 -2.6 C 0 km/h
352 01-04-2020 05:15:00 -2.6 C 3.31 g/m*3 -2.6 C 0 km/h
353 01-04-2020 05:20:00 -2.7 C 3.29 g/m*3 -2.7 C 0 km/h
354 01-04-2020 05:25:00 -2.7 C 3.33 g/m*3 -2.7 C 0 km/h
355 01-04-2020 05:30:00 -2.7 C 3.33 g/m*3 -2.7 C 0 km/h
356 01-04-2020 05:35:00 -2.7 C 3.33 g/m*3 -2.7 C 0 km/h
357 01-04-2020 05:40:00 -2.7 C 3.33 g/m*3 -2.7 C 0 km/h
358 01-04-2020 05:45:00 -2.8 C 3.31 g/m*3 -2.8 C 0 km/h
359 01-04-2020 05:50:00 -2.8 C 3.31 g/m*3 -2.8 C 0 km/h
360 01-04-2020 05:55:00 -2.8 C 3.31 g/m*3 -2.8 C 0 km/h
361 01-04-2020 06:00:00 -2.9 C 3.28 g/m*3 -2.9 C 0 km/h
362 01-04-2020 06:05:00 -2.9 C 3.28 g/m*3 -2.9 C 0 km/h
363 01-04-2020 06:10:00 -2.9 C 3.32 g/m*3 -2.9 C 0 km/h
364 01-04-2020 06:15:00 -3 C 3.3 g/m*3 -3 C 0 km/h
365 01-04-2020 06:20:00 -3 C 3.3 g/m*3 -3 C 0 km/h
366 01-04-2020 06:25:00 -3.1 C 3.28 g/m*3 -3.1 C 0 km/h
367 01-04-2020 06:30:00 -3.1 C 3.28 g/m*3 -3.1 C 0 km/h
368 01-04-2020 06:35:00 -3.1 C 3.32 g/m*3 -3.1 C 0 km/h
369 01-04-2020 06:40:00 -3.1 C 3.32 g/m*3 -3.1 C 0 km/h
370 01-04-2020 06:45:00 -3.1 C 3.32 g/m*3 -3.1 C 0 km/h
371 01-04-2020 06:50:00 -3.2 C 3.29 g/m*3 -3.2 C 0 km/h
372 01-04-2020 06:55:00 -3.2 C 3.29 g/m*3 -3.2 C 0 km/h
373 01-04-2020 07:00:00 -3.2 C 3.29 g/m*3 -3.2 C 0 km/h
374 01-04-2020 07:05:00 -3.3 C 3.27 g/m*3 -3.3 C 0 km/h
375 01-04-2020 07:10:00 -3.3 C 3.27 g/m*3 -3.3 C 0 km/h
Sensor: Nr:Datum:Temp:Abs-Feuchte:Windchill:Wind:
Aussen-T/F 376 01-04-2020 07:15:00 -3.4 C 3.25 g/m*3 -3.4 C 0 km/h
377 01-04-2020 07:20:00 -3.4 C 3.25 g/m*3 -3.4 C 0 km/h
378 01-04-2020 07:25:00 -3.4 C 3.25 g/m*3 -3.4 C 0 km/h
379 01-04-2020 07:30:00 -3.4 C 3.28 g/m*3 -3.4 C 0 km/h
380 01-04-2020 07:35:00 -3.3 C 3.31 g/m*3 -3.3 C 0 km/h
381 01-04-2020 07:40:00 -3.3 C 3.27 g/m*3 -3.3 C 0 km/h
382 01-04-2020 07:45:00 -3.3 C 3.27 g/m*3 -3.3 C 0 km/h
383 01-04-2020 07:50:00 -3.3 C 3.31 g/m*3 -3.3 C 0 km/h
384 01-04-2020 07:55:00 -3.3 C 3.31 g/m*3 -3.3 C 0 km/h
385 01-04-2020 08:00:00 -3.2 C 3.33 g/m*3 -3.2 C 0 km/h
386 01-04-2020 08:05:00 -3.2 C 3.33 g/m*3 -3.2 C 0 km/h
387 01-04-2020 08:10:00 -3.2 C 3.33 g/m*3 -3.2 C 0 km/h
388 01-04-2020 08:15:00 -3.1 C 3.39 g/m*3 -3.1 C 0 km/h
389 01-04-2020 08:20:00 -2.9 C 3.44 g/m*3 -2.9 C 0 km/h
390 01-04-2020 08:25:00 -2.9 C 3.44 g/m*3 -2.9 C 0 km/h
391 01-04-2020 08:30:00 -2.9 C 3.4 g/m*3 -2.9 C 0 km/h
392 01-04-2020 08:35:00 -2.8 C 3.43 g/m*3 -2.8 C 0 km/h
393 01-04-2020 08:40:00 -2.8 C 3.43 g/m*3 -2.8 C 0 km/h
394 01-04-2020 08:45:00 -2.8 C 3.43 g/m*3 -2.8 C 0 km/h
395 01-04-2020 08:50:00 -2.8 C 3.43 g/m*3 -2.8 C 0 km/h
396 01-04-2020 08:55:00 -2.7 C 3.45 g/m*3 -2.7 C 0 km/h
397 01-04-2020 09:00:00 -2.6 C 3.43 g/m*3 -2.6 C 0 km/h
398 01-04-2020 09:05:00 -2.6 C 3.43 g/m*3 -2.6 C 0 km/h
399 01-04-2020 09:10:00 -2.4 C 3.48 g/m*3 -2.4 C 0 km/h
400 01-04-2020 09:15:00 -2.3 C 3.51 g/m*3 -2.3 C 0 km/h
Sensor: Nr:Datum:Temp:Abs-Feuchte:Windchill:Wind:
Aussen-T/F 401 01-04-2020 09:20:00 -2.3 C 3.51 g/m*3 -2.3 C 0 km/h
402 01-04-2020 09:25:00 -2.2 C 3.53 g/m*3 -2.2 C 0 km/h
403 01-04-2020 09:30:00 -2.1 C 3.56 g/m*3 -2.1 C 0 km/h
404 01-04-2020 09:35:00 -1.9 C 3.57 g/m*3 -1.9 C 0 km/h
405 01-04-2020 09:40:00 -1.8 C 3.59 g/m*3 -1.8 C 0 km/h
406 01-04-2020 09:45:00 -1.7 C 3.62 g/m*3 -1.7 C 1.6 km/h
407 01-04-2020 09:50:00 -1.7 C 3.62 g/m*3 -1.7 C 1.6 km/h
408 01-04-2020 09:55:00 -1.6 C 3.64 g/m*3 -1.6 C 0 km/h
409 01-04-2020 10:00:00 -1.4 C 3.69 g/m*3 -1.4 C 1.6 km/h
410 01-04-2020 10:05:00 -1.3 C 3.72 g/m*3 -1.3 C 0 km/h
411 01-04-2020 10:10:00 -1.1 C 3.77 g/m*3 -1.1 C 0 km/h
412 01-04-2020 10:15:00 -0.9 C 3.82 g/m*3 -0.9 C 0 km/h
413 01-04-2020 10:20:00 -0.6 C 3.9 g/m*3 -0.6 C 0 km/h
414 01-04-2020 10:25:00 -0.3 C 3.94 g/m*3 -0.3 C 0 km/h
415 01-04-2020 10:30:00 -0.1 C 3.99 g/m*3 -0.1 C 0 km/h
416 01-04-2020 10:35:00 0.2 C 4.03 g/m*3 0.2 C 0 km/h
417 01-04-2020 10:40:00 0.6 C 4.14 g/m*3 0.6 C 0 km/h
418 01-04-2020 10:45:00 0.9 C 4.18 g/m*3 0.9 C 0 km/h
419 01-04-2020 10:50:00 1.3 C 4.19 g/m*3 1.3 C 0 km/h
420 01-04-2020 10:55:00 1.8 C 4.28 g/m*3 1.8 C 0 km/h
421 01-04-2020 11:00:00 2.3 C 4.31 g/m*3 2.3 C 0 km/h
422 01-04-2020 11:05:00 2.6 C 4.34 g/m*3 2.6 C 0 km/h
423 01-04-2020 11:10:00 2.8 C 4.34 g/m*3 2.8 C 0 km/h
424 01-04-2020 11:15:00 3.1 C 4.25 g/m*3 3.1 C 0 km/h
425 01-04-2020 11:20:00 3.3 C 4.19 g/m*3 3.3 C 0 km/h
Sensor: Nr:Datum:Temp:Abs-Feuchte:Windchill:Wind:
Aussen-T/F 426 01-04-2020 11:25:00 3.7 C 3.99 g/m*3 3.7 C 0 km/h
427 01-04-2020 11:30:00 3.9 C 3.92 g/m*3 3.9 C 3.2 km/h
428 01-04-2020 11:35:00 4.3 C 3.76 g/m*3 4.3 C 1.6 km/h
429 01-04-2020 11:40:00 4.7 C 3.93 g/m*3 4.7 C 3.2 km/h
430 01-04-2020 11:45:00 5.1 C 3.9 g/m*3 5.1 C 3.2 km/h
431 01-04-2020 11:50:00 5.4 C 3.77 g/m*3 5.4 C 0 km/h
432 01-04-2020 11:55:00 5.7 C 3.56 g/m*3 5.7 C 3.2 km/h
433 01-04-2020 12:00:00 6 C 3.63 g/m*3 6 C 1.6 km/h
434 01-04-2020 12:05:00 6.3 C 3.55 g/m*3 6.3 C 1.6 km/h
435 01-04-2020 12:10:00 6.7 C 3.65 g/m*3 5.56 C 6.4 km/h
436 01-04-2020 12:15:00 6.8 C 3.59 g/m*3 6.8 C 4.8 km/h
437 01-04-2020 12:20:00 7.1 C 3.59 g/m*3 5.23 C 9.7 km/h
438 01-04-2020 12:25:00 7.3 C 3.71 g/m*3 5.47 C 9.7 km/h
439 01-04-2020 12:30:00 7.6 C 3.63 g/m*3 6.6 C 6.4 km/h
440 01-04-2020 12:35:00 7.7 C 3.65 g/m*3 7.7 C 4.8 km/h
441 01-04-2020 12:40:00 7.8 C 3.59 g/m*3 6.83 C 6.4 km/h
442 01-04-2020 12:45:00 7.9 C 3.53 g/m*3 7.9 C 4.8 km/h
443 01-04-2020 12:50:00 8.1 C 3.66 g/m*3 7.17 C 6.4 km/h
444 01-04-2020 12:55:00 8.2 C 3.6 g/m*3 7.29 C 6.4 km/h
445 01-04-2020 13:00:00 8.3 C 3.71 g/m*3 7.41 C 6.4 km/h
446 01-04-2020 13:05:00 8.6 C 3.61 g/m*3 7.75 C 6.4 km/h
447 01-04-2020 13:10:00 8.6 C 3.61 g/m*3 8.6 C 4.8 km/h
448 01-04-2020 13:15:00 8.7 C 3.63 g/m*3 8.7 C 4.8 km/h
449 01-04-2020 13:20:00 8.8 C 3.57 g/m*3 6.72 C 12.9 km/h
450 01-04-2020 13:25:00 8.7 C 3.46 g/m*3 6.6 C 12.9 km/h
Sensor: Nr:Datum:Temp:Abs-Feuchte:Windchill:Wind:
Aussen-T/F 451 01-04-2020 13:30:00 8.7 C 3.55 g/m*3 7.46 C 8.1 km/h
452 01-04-2020 13:35:00 8.8 C 3.57 g/m*3 8.8 C 3.2 km/h
453 01-04-2020 13:40:00 8.9 C 3.59 g/m*3 8.9 C 3.2 km/h
454 01-04-2020 13:45:00 9.2 C 3.57 g/m*3 9.2 C 4.8 km/h
455 01-04-2020 13:50:00 9.2 C 3.57 g/m*3 8.45 C 6.4 km/h
456 01-04-2020 13:55:00 9.2 C 3.57 g/m*3 8.05 C 8.1 km/h
457 01-04-2020 14:00:00 9.2 C 3.57 g/m*3 7.73 C 9.7 km/h
458 01-04-2020 14:05:00 9.3 C 3.59 g/m*3 8.16 C 8.1 km/h
459 01-04-2020 14:10:00 9.4 C 3.62 g/m*3 8.68 C 6.4 km/h
460 01-04-2020 14:15:00 9.5 C 3.55 g/m*3 8.79 C 6.4 km/h
461 01-04-2020 14:20:00 9.8 C 3.71 g/m*3 8.45 C 9.7 km/h
462 01-04-2020 14:25:00 9.9 C 3.73 g/m*3 8.87 C 8.1 km/h
463 01-04-2020 14:30:00 10.1 C 3.59 g/m*3 10.1 C 4.8 km/h
464 01-04-2020 14:35:00 10.3 C 3.54 g/m*3 8.34 C 14.5 km/h
465 01-04-2020 14:40:00 10.3 C 3.45 g/m*3 9.34 C 8.1 km/h
466 01-04-2020 14:45:00 10.3 C 3.54 g/m*3 9.72 C 6.4 km/h
467 01-04-2020 14:50:00 10.3 C 3.26 g/m*3 9.04 C 9.7 km/h
468 01-04-2020 14:55:00 10.3 C 3.26 g/m*3 9.72 C 6.4 km/h
469 01-04-2020 15:00:00 10.3 C 3.26 g/m*3 9.34 C 8.1 km/h
470 01-04-2020 15:05:00 10.2 C 3.24 g/m*3 10.2 C 4.8 km/h
471 01-04-2020 15:10:00 10.3 C 3.35 g/m*3 9.72 C 6.4 km/h
472 01-04-2020 15:15:00 10.4 C 3.47 g/m*3 9.46 C 8.1 km/h
473 01-04-2020 15:20:00 10.7 C 3.34 g/m*3 10.18 C 6.4 km/h
474 01-04-2020 15:25:00 10.8 C 3.26 g/m*3 9.64 C 9.7 km/h
475 01-04-2020 15:30:00 10.7 C 3.24 g/m*3 10.18 C 6.4 km/h
Sensor: Nr:Datum:Temp:Abs-Feuchte:Windchill:Wind:
Aussen-T/F 476 01-04-2020 15:35:00 10.7 C 3.24 g/m*3 10.7 C 3.2 km/h
477 01-04-2020 15:40:00 10.8 C 3.26 g/m*3 9.93 C 8.1 km/h
478 01-04-2020 15:45:00 10.9 C 3.08 g/m*3 9.76 C 9.7 km/h
479 01-04-2020 15:50:00 11 C 3.1 g/m*3 10.52 C 6.4 km/h
480 01-04-2020 15:55:00 11.1 C 3.12 g/m*3 11.1 C 4.8 km/h
481 01-04-2020 16:00:00 11.1 C 3.32 g/m*3 11.1 C 6.4 km/h
482 01-04-2020 16:05:00 11.1 C 3.32 g/m*3 11.1 C 3.2 km/h
483 01-04-2020 16:10:00 11.2 C 3.45 g/m*3 11.2 C 4.8 km/h
484 01-04-2020 16:15:00 11.4 C 3.39 g/m*3 11.4 C 8.1 km/h
485 01-04-2020 16:20:00 11.5 C 3.31 g/m*3 11.5 C 8.1 km/h
486 01-04-2020 16:25:00 11.6 C 3.22 g/m*3 11.6 C 4.8 km/h
487 01-04-2020 16:30:00 11.6 C 3.22 g/m*3 11.6 C 6.4 km/h
488 01-04-2020 16:35:00 11.7 C 3.14 g/m*3 11.7 C 4.8 km/h
489 01-04-2020 16:40:00 11.8 C 3.47 g/m*3 11.8 C 3.2 km/h
490 01-04-2020 16:45:00 12.2 C 3.45 g/m*3 12.2 C 3.2 km/h
491 01-04-2020 16:50:00 12.6 C 3.54 g/m*3 12.6 C 9.7 km/h
492 01-04-2020 16:55:00 12.6 C 3.65 g/m*3 12.6 C 8.1 km/h
493 01-04-2020 17:00:00 12.6 C 3.54 g/m*3 12.6 C 8.1 km/h
494 01-04-2020 17:05:00 12.4 C 3.5 g/m*3 12.4 C 9.7 km/h
495 01-04-2020 17:10:00 12.9 C 4.06 g/m*3 12.9 C 3.2 km/h
496 01-04-2020 17:15:00 13.2 C 3.79 g/m*3 13.2 C 6.4 km/h
497 01-04-2020 17:20:00 13.2 C 3.67 g/m*3 13.2 C 6.4 km/h
498 01-04-2020 17:25:00 13.3 C 3.81 g/m*3 13.3 C 8.1 km/h
499 01-04-2020 17:30:00 13.2 C 3.56 g/m*3 13.2 C 6.4 km/h
500 01-04-2020 17:35:00 13.3 C 3.58 g/m*3 13.3 C 3.2 km/h
Sensor: Nr:Datum:Temp:Abs-Feuchte:Windchill:Wind:
Aussen-T/F 501 01-04-2020 17:40:00 13.3 C 3.58 g/m*3 13.3 C 8.1 km/h
502 01-04-2020 17:45:00 13.2 C 3.67 g/m*3 13.2 C 6.4 km/h
503 01-04-2020 17:50:00 13.2 C 3.67 g/m*3 13.2 C 4.8 km/h
504 01-04-2020 17:55:00 13.1 C 3.65 g/m*3 13.1 C 9.7 km/h
505 01-04-2020 18:00:00 12.9 C 3.61 g/m*3 12.9 C 8.1 km/h
506 01-04-2020 18:05:00 12.6 C 3.65 g/m*3 12.6 C 9.7 km/h
507 01-04-2020 18:10:00 12.5 C 3.63 g/m*3 12.5 C 8.1 km/h
508 01-04-2020 18:15:00 12.6 C 3.65 g/m*3 12.6 C 8.1 km/h
509 01-04-2020 18:20:00 12.7 C 3.67 g/m*3 12.7 C 6.4 km/h
510 01-04-2020 18:25:00 12.9 C 3.72 g/m*3 12.9 C 6.4 km/h
511 01-04-2020 18:30:00 12.9 C 3.61 g/m*3 12.9 C 4.8 km/h
512 01-04-2020 18:35:00 13 C 3.74 g/m*3 13 C 4.8 km/h
513 01-04-2020 18:40:00 13.1 C 3.77 g/m*3 13.1 C 4.8 km/h
514 01-04-2020 18:45:00 13.2 C 3.67 g/m*3 13.2 C 4.8 km/h
515 01-04-2020 18:50:00 13.2 C 3.67 g/m*3 13.2 C 4.8 km/h
516 01-04-2020 18:55:00 13.2 C 3.79 g/m*3 13.2 C 3.2 km/h
517 01-04-2020 19:00:00 13.3 C 3.7 g/m*3 13.3 C 6.4 km/h
518 01-04-2020 19:05:00 13 C 3.74 g/m*3 13 C 4.8 km/h
519 01-04-2020 19:10:00 12.8 C 3.7 g/m*3 12.8 C 6.4 km/h
520 01-04-2020 19:15:00 12.7 C 3.67 g/m*3 12.7 C 6.4 km/h
521 01-04-2020 19:20:00 12.4 C 3.71 g/m*3 12.4 C 6.4 km/h
522 01-04-2020 19:25:00 12.2 C 3.67 g/m*3 12.2 C 6.4 km/h
523 01-04-2020 19:30:00 11.8 C 3.58 g/m*3 11.8 C 9.7 km/h
524 01-04-2020 19:35:00 11.5 C 3.62 g/m*3 11.5 C 4.8 km/h
525 01-04-2020 19:40:00 11.2 C 3.55 g/m*3 11.2 C 4.8 km/h
Sensor: Nr:Datum:Temp:Abs-Feuchte:Windchill:Wind:
Aussen-T/F 526 01-04-2020 19:45:00 10.9 C 3.58 g/m*3 10.04 C 8.1 km/h
527 01-04-2020 19:50:00 10.7 C 3.54 g/m*3 10.7 C 4.8 km/h
528 01-04-2020 19:55:00 10.4 C 3.76 g/m*3 10.4 C 1.6 km/h
529 01-04-2020 20:00:00 10.1 C 3.59 g/m*3 9.48 C 6.4 km/h
530 01-04-2020 20:05:00 9.7 C 3.69 g/m*3 9.7 C 4.8 km/h
531 01-04-2020 20:10:00 9.4 C 3.8 g/m*3 9.4 C 1.6 km/h
532 01-04-2020 20:15:00 9.2 C 3.48 g/m*3 7.46 C 11.3 km/h
533 01-04-2020 20:20:00 9.1 C 3.46 g/m*3 8.33 C 6.4 km/h
534 01-04-2020 20:25:00 9.1 C 3.64 g/m*3 9.1 C 4.8 km/h
535 01-04-2020 20:30:00 8.8 C 3.83 g/m*3 8.8 C 1.6 km/h
536 01-04-2020 20:35:00 8.4 C 3.9 g/m*3 8.4 C 0 km/h
537 01-04-2020 20:40:00 7.8 C 4 g/m*3 6.83 C 6.4 km/h
538 01-04-2020 20:45:00 7.4 C 4.06 g/m*3 7.4 C 4.8 km/h
539 01-04-2020 20:50:00 6.9 C 4.16 g/m*3 5.79 C 6.4 km/h
540 01-04-2020 20:55:00 6.6 C 4.08 g/m*3 5.44 C 6.4 km/h
541 01-04-2020 21:00:00 6.3 C 4.07 g/m*3 5.1 C 6.4 km/h
542 01-04-2020 21:05:00 6 C 4.06 g/m*3 6 C 4.8 km/h
543 01-04-2020 21:10:00 5.7 C 4.06 g/m*3 4.4 C 6.4 km/h
544 01-04-2020 21:15:00 5.6 C 4.03 g/m*3 4.29 C 6.4 km/h
545 01-04-2020 21:20:00 5.4 C 4.12 g/m*3 5.4 C 4.8 km/h
546 01-04-2020 21:25:00 5.3 C 4.09 g/m*3 5.3 C 4.8 km/h
547 01-04-2020 21:30:00 5.2 C 4.06 g/m*3 5.2 C 4.8 km/h
548 01-04-2020 21:35:00 5.1 C 4.1 g/m*3 5.1 C 4.8 km/h
549 01-04-2020 21:40:00 5 C 4.08 g/m*3 3.59 C 6.4 km/h
550 01-04-2020 21:45:00 4.9 C 4.12 g/m*3 4.9 C 1.6 km/h
Sensor: Nr:Datum:Temp:Abs-Feuchte:Windchill:Wind:
Aussen-T/F 551 01-04-2020 21:50:00 4.7 C 4.13 g/m*3 4.7 C 3.2 km/h
552 01-04-2020 21:55:00 4.6 C 4.17 g/m*3 4.6 C 4.8 km/h
553 01-04-2020 22:00:00 4.4 C 4.05 g/m*3 4.4 C 4.8 km/h
554 01-04-2020 22:05:00 4.3 C 4.09 g/m*3 4.3 C 4.8 km/h
555 01-04-2020 22:10:00 4.2 C 4.12 g/m*3 4.2 C 4.8 km/h
556 01-04-2020 22:15:00 4 C 4.07 g/m*3 4 C 4.8 km/h
557 01-04-2020 22:20:00 3.9 C 4.11 g/m*3 3.9 C 3.2 km/h
558 01-04-2020 22:25:00 3.7 C 4.11 g/m*3 3.7 C 1.6 km/h
559 01-04-2020 22:30:00 3.6 C 4.09 g/m*3 3.6 C 3.2 km/h
560 01-04-2020 22:35:00 3.5 C 4.06 g/m*3 3.5 C 3.2 km/h
561 01-04-2020 22:40:00 3.5 C 4.06 g/m*3 3.5 C 0 km/h
562 01-04-2020 22:45:00 3.4 C 4.03 g/m*3 3.4 C 1.6 km/h
563 01-04-2020 22:50:00 3.3 C 4.06 g/m*3 3.3 C 0 km/h
564 01-04-2020 22:55:00 3.2 C 4.1 g/m*3 3.2 C 0 km/h
565 01-04-2020 23:00:00 3.1 C 4.13 g/m*3 3.1 C 1.6 km/h
566 01-04-2020 23:05:00 2.9 C 4.13 g/m*3 2.9 C 1.6 km/h
567 01-04-2020 23:10:00 2.7 C 4.08 g/m*3 2.7 C 1.6 km/h
568 01-04-2020 23:15:00 2.7 C 4.14 g/m*3 2.7 C 0 km/h
569 01-04-2020 23:20:00 2.7 C 4.14 g/m*3 2.7 C 0 km/h
570 01-04-2020 23:25:00 2.6 C 4.17 g/m*3 2.6 C 0 km/h
571 01-04-2020 23:30:00 2.4 C 4.05 g/m*3 2.4 C 0 km/h
572 01-04-2020 23:35:00 2.3 C 4.03 g/m*3 2.3 C 0 km/h
573 01-04-2020 23:40:00 2.2 C 4.06 g/m*3 2.2 C 0 km/h
574 01-04-2020 23:45:00 2 C 4.06 g/m*3 2 C 1.6 km/h
575 01-04-2020 23:50:00 1.9 C 4.03 g/m*3 1.9 C 1.6 km/h
Sensor: Nr:Datum:Temp:Abs-Feuchte:Windchill:Wind:
Aussen-T/F 576 01-04-2020 23:55:00 1.8 C 4 g/m*3 1.8 C 3.2 km/h

Legende:
   Min
   Max


Maximal/Minimal-Werte vom 31.03.2020 - 01.04.2020

Sensor Min Max Avg
Temp
(Aussen-T/F)
-3.4 °C
01-04-2020  07:15:00
13.3 °C
01-04-2020  17:25:00
4.64 °C
Abs-Feuchte
(Aussen-T/F)
3.08 g/m*3
01-04-2020  15:45:00
5.67 g/m*3
31-03-2020  08:35:00
4.04 g/m*3
Windchill
(Aussen-T/F)
-3.4 C
01-04-2020  07:15:00
13.3 C
01-04-2020  17:25:00
4.15 C

Die Daten stammen von einer Davis Vantage Pro 2 Wetter-Station und werden unter Linux mit der Software wview2wettercgi und aufbereitet. Alle Angaben erfolgen ohne Gewähr für ihre Vollständigkeit oder Richtigkeit.
Kontakt: Rainer Krienke krienke@uni-koblenz.de . Meine Webseiten an der Uni Koblenz oder privat.
Version: $Revision: 0.78 $